sensor_id;sensor_type;location;lat;lon;timestamp;P1;durP1;ratioP1;P2;durP2;ratioP2
55224;SDS011;41091;49.400;8.684;2023-04-08T00:02:01;3.72;;;3.42;;
55224;SDS011;41091;49.400;8.684;2023-04-08T00:04:27;7.47;;;3.58;;
55224;SDS011;41091;49.400;8.684;2023-04-08T00:06:52;4.47;;;3.85;;
55224;SDS011;41091;49.400;8.684;2023-04-08T00:09:20;4.30;;;3.90;;
55224;SDS011;41091;49.400;8.684;2023-04-08T00:11:45;3.92;;;3.72;;
55224;SDS011;41091;49.400;8.684;2023-04-08T00:14:10;3.42;;;3.22;;
55224;SDS011;41091;49.400;8.684;2023-04-08T00:16:38;4.80;;;4.45;;
55224;SDS011;41091;49.400;8.684;2023-04-08T00:19:06;4.68;;;4.28;;
55224;SDS011;41091;49.400;8.684;2023-04-08T00:21:31;4.13;;;3.83;;
55224;SDS011;41091;49.400;8.684;2023-04-08T00:23:59;4.43;;;3.95;;
55224;SDS011;41091;49.400;8.684;2023-04-08T00:26:25;3.95;;;3.65;;
55224;SDS011;41091;49.400;8.684;2023-04-08T00:28:53;4.75;;;4.28;;
55224;SDS011;41091;49.400;8.684;2023-04-08T00:31:21;6.07;;;4.03;;
55224;SDS011;41091;49.400;8.684;2023-04-08T00:33:46;4.05;;;3.75;;
55224;SDS011;41091;49.400;8.684;2023-04-08T00:36:12;5.00;;;4.60;;
55224;SDS011;41091;49.400;8.684;2023-04-08T00:38:37;4.70;;;4.30;;
55224;SDS011;41091;49.400;8.684;2023-04-08T00:41:02;4.15;;;3.83;;
55224;SDS011;41091;49.400;8.684;2023-04-08T00:43:28;4.20;;;3.90;;
55224;SDS011;41091;49.400;8.684;2023-04-08T00:45:56;3.83;;;3.63;;
55224;SDS011;41091;49.400;8.684;2023-04-08T00:48:21;4.53;;;4.13;;
55224;SDS011;41091;49.400;8.684;2023-04-08T00:50:49;4.43;;;4.03;;
55224;SDS011;41091;49.400;8.684;2023-04-08T00:53:14;3.90;;;3.60;;
55224;SDS011;41091;49.400;8.684;2023-04-08T00:55:42;4.68;;;4.28;;
55224;SDS011;41091;49.400;8.684;2023-04-08T00:58:07;4.72;;;4.32;;
55224;SDS011;41091;49.400;8.684;2023-04-08T01:00:35;3.97;;;3.67;;
55224;SDS011;41091;49.400;8.684;2023-04-08T01:03:24;4.53;;;4.05;;
55224;SDS011;41091;49.400;8.684;2023-04-08T01:08:40;4.38;;;3.97;;
55224;SDS011;41091;49.400;8.684;2023-04-08T01:11:09;3.58;;;3.33;;
55224;SDS011;41091;49.400;8.684;2023-04-08T01:13:38;5.05;;;4.30;;
55224;SDS011;41091;49.400;8.684;2023-04-08T01:16:11;4.43;;;4.00;;
55224;SDS011;41091;49.400;8.684;2023-04-08T01:18:38;4.43;;;4.13;;
55224;SDS011;41091;49.400;8.684;2023-04-08T01:21:06;4.13;;;3.92;;
55224;SDS011;41091;49.400;8.684;2023-04-08T01:26:30;4.40;;;4.00;;
55224;SDS011;41091;49.400;8.684;2023-04-08T01:28:59;4.47;;;4.03;;
55224;SDS011;41091;49.400;8.684;2023-04-08T01:31:25;5.70;;;4.35;;
55224;SDS011;41091;49.400;8.684;2023-04-08T01:33:54;4.88;;;4.45;;
55224;SDS011;41091;49.400;8.684;2023-04-08T01:36:22;7.65;;;4.28;;
55224;SDS011;41091;49.400;8.684;2023-04-08T01:38:48;5.30;;;4.78;;
55224;SDS011;41091;49.400;8.684;2023-04-08T01:41:14;4.85;;;4.35;;
55224;SDS011;41091;49.400;8.684;2023-04-08T01:43:41;6.97;;;4.05;;
55224;SDS011;41091;49.400;8.684;2023-04-08T01:46:10;4.60;;;4.13;;
55224;SDS011;41091;49.400;8.684;2023-04-08T01:48:37;4.43;;;4.03;;
55224;SDS011;41091;49.400;8.684;2023-04-08T01:51:04;4.82;;;4.30;;
55224;SDS011;41091;49.400;8.684;2023-04-08T01:53:32;4.18;;;3.85;;
55224;SDS011;41091;49.400;8.684;2023-04-08T01:56:01;4.80;;;4.40;;
55224;SDS011;41091;49.400;8.684;2023-04-08T01:58:30;3.80;;;3.58;;
55224;SDS011;41091;49.400;8.684;2023-04-08T02:00:59;7.93;;;3.78;;
55224;SDS011;41091;49.400;8.684;2023-04-08T02:03:24;5.72;;;4.03;;
55224;SDS011;41091;49.400;8.684;2023-04-08T02:05:54;4.53;;;4.22;;
55224;SDS011;41091;49.400;8.684;2023-04-08T02:08:19;5.35;;;4.40;;
55224;SDS011;41091;49.400;8.684;2023-04-08T02:10:44;6.43;;;3.22;;
55224;SDS011;41091;49.400;8.684;2023-04-08T02:13:12;9.43;;;4.25;;
55224;SDS011;41091;49.400;8.684;2023-04-08T02:15:39;5.43;;;4.40;;
55224;SDS011;41091;49.400;8.684;2023-04-08T02:18:14;3.40;;;3.20;;
55224;SDS011;41091;49.400;8.684;2023-04-08T02:20:46;3.70;;;3.40;;
55224;SDS011;41091;49.400;8.684;2023-04-08T02:23:19;4.45;;;4.05;;
55224;SDS011;41091;49.400;8.684;2023-04-08T02:25:45;6.25;;;3.90;;
55224;SDS011;41091;49.400;8.684;2023-04-08T02:28:11;5.97;;;4.40;;
55224;SDS011;41091;49.400;8.684;2023-04-08T02:30:40;3.97;;;3.67;;
55224;SDS011;41091;49.400;8.684;2023-04-08T02:33:06;4.40;;;4.00;;
55224;SDS011;41091;49.400;8.684;2023-04-08T02:35:33;4.20;;;3.90;;
55224;SDS011;41091;49.400;8.684;2023-04-08T02:37:59;3.42;;;3.22;;
55224;SDS011;41091;49.400;8.684;2023-04-08T02:40:30;3.75;;;3.55;;
55224;SDS011;41091;49.400;8.684;2023-04-08T02:42:56;3.40;;;3.20;;
55224;SDS011;41091;49.400;8.684;2023-04-08T02:45:24;4.20;;;3.90;;
55224;SDS011;41091;49.400;8.684;2023-04-08T02:47:51;5.97;;;4.00;;
55224;SDS011;41091;49.400;8.684;2023-04-08T02:50:19;3.72;;;3.35;;
55224;SDS011;41091;49.400;8.684;2023-04-08T02:52:45;3.80;;;3.60;;
55224;SDS011;41091;49.400;8.684;2023-04-08T02:55:10;3.67;;;3.47;;
55224;SDS011;41091;49.400;8.684;2023-04-08T02:57:40;4.68;;;4.28;;
55224;SDS011;41091;49.400;8.684;2023-04-08T03:00:06;8.32;;;4.07;;
55224;SDS011;41091;49.400;8.684;2023-04-08T03:02:32;6.22;;;3.28;;
55224;SDS011;41091;49.400;8.684;2023-04-08T03:04:58;3.60;;;3.40;;
55224;SDS011;41091;49.400;8.684;2023-04-08T03:07:26;6.22;;;3.95;;
55224;SDS011;41091;49.400;8.684;2023-04-08T03:09:51;4.90;;;4.50;;
55224;SDS011;41091;49.400;8.684;2023-04-08T03:12:19;4.38;;;3.97;;
55224;SDS011;41091;49.400;8.684;2023-04-08T03:14:44;4.35;;;3.70;;
55224;SDS011;41091;49.400;8.684;2023-04-08T03:17:10;4.25;;;3.95;;
55224;SDS011;41091;49.400;8.684;2023-04-08T03:19:35;5.75;;;3.85;;
55224;SDS011;41091;49.400;8.684;2023-04-08T03:22:00;3.67;;;3.45;;
55224;SDS011;41091;49.400;8.684;2023-04-08T03:24:28;7.15;;;4.22;;
55224;SDS011;41091;49.400;8.684;2023-04-08T03:26:53;4.20;;;3.90;;
55224;SDS011;41091;49.400;8.684;2023-04-08T03:29:21;4.13;;;3.83;;
55224;SDS011;41091;49.400;8.684;2023-04-08T03:31:46;4.72;;;4.28;;
55224;SDS011;41091;49.400;8.684;2023-04-08T03:34:11;4.65;;;4.22;;
55224;SDS011;41091;49.400;8.684;2023-04-08T03:36:37;4.68;;;4.28;;
55224;SDS011;41091;49.400;8.684;2023-04-08T03:39:02;5.07;;;4.55;;
55224;SDS011;41091;49.400;8.684;2023-04-08T03:41:28;4.85;;;4.50;;
55224;SDS011;41091;49.400;8.684;2023-04-08T03:43:53;4.95;;;4.53;;
55224;SDS011;41091;49.400;8.684;2023-04-08T03:46:21;4.32;;;3.92;;
55224;SDS011;41091;49.400;8.684;2023-04-08T03:48:47;5.32;;;4.82;;
55224;SDS011;41091;49.400;8.684;2023-04-08T03:51:12;4.82;;;4.43;;
55224;SDS011;41091;49.400;8.684;2023-04-08T03:53:40;6.35;;;4.38;;
55224;SDS011;41091;49.400;8.684;2023-04-08T03:56:05;5.53;;;5.07;;
55224;SDS011;41091;49.400;8.684;2023-04-08T03:58:31;8.73;;;5.07;;
55224;SDS011;41091;49.400;8.684;2023-04-08T04:00:56;5.25;;;4.60;;
55224;SDS011;41091;49.400;8.684;2023-04-08T04:03:22;4.78;;;4.30;;
55224;SDS011;41091;49.400;8.684;2023-04-08T04:05:49;4.93;;;4.57;;
55224;SDS011;41091;49.400;8.684;2023-04-08T04:08:15;5.05;;;4.65;;
55224;SDS011;41091;49.400;8.684;2023-04-08T04:10:40;4.93;;;4.43;;
55224;SDS011;41091;49.400;8.684;2023-04-08T04:13:09;5.65;;;4.45;;
55224;SDS011;41091;49.400;8.684;2023-04-08T04:15:37;5.03;;;4.72;;
55224;SDS011;41091;49.400;8.684;2023-04-08T04:18:04;8.40;;;5.00;;
55224;SDS011;41091;49.400;8.684;2023-04-08T04:20:32;4.38;;;4.07;;
55224;SDS011;41091;49.400;8.684;2023-04-08T04:23:00;5.78;;;4.38;;
55224;SDS011;41091;49.400;8.684;2023-04-08T04:25:27;5.47;;;4.97;;
55224;SDS011;41091;49.400;8.684;2023-04-08T04:27:53;6.20;;;5.00;;
55224;SDS011;41091;49.400;8.684;2023-04-08T04:30:18;4.88;;;4.53;;
55224;SDS011;41091;49.400;8.684;2023-04-08T04:32:46;5.70;;;4.93;;
55224;SDS011;41091;49.400;8.684;2023-04-08T04:35:11;6.43;;;5.25;;
55224;SDS011;41091;49.400;8.684;2023-04-08T04:37:39;5.65;;;5.15;;
55224;SDS011;41091;49.400;8.684;2023-04-08T04:40:06;5.03;;;4.53;;
55224;SDS011;41091;49.400;8.684;2023-04-08T04:42:34;4.53;;;4.15;;
55224;SDS011;41091;49.400;8.684;2023-04-08T04:45:00;5.53;;;5.13;;
55224;SDS011;41091;49.400;8.684;2023-04-08T04:47:25;5.68;;;4.65;;
55224;SDS011;41091;49.400;8.684;2023-04-08T04:49:50;4.95;;;4.30;;
55224;SDS011;41091;49.400;8.684;2023-04-08T04:52:16;4.90;;;4.50;;
55224;SDS011;41091;49.400;8.684;2023-04-08T04:54:41;4.88;;;4.47;;
55224;SDS011;41091;49.400;8.684;2023-04-08T04:57:10;5.35;;;4.88;;
55224;SDS011;41091;49.400;8.684;2023-04-08T04:59:35;4.60;;;3.97;;
55224;SDS011;41091;49.400;8.684;2023-04-08T05:02:01;4.57;;;4.18;;
55224;SDS011;41091;49.400;8.684;2023-04-08T05:04:28;9.57;;;5.13;;
55224;SDS011;41091;49.400;8.684;2023-04-08T05:06:54;4.88;;;4.47;;
55224;SDS011;41091;49.400;8.684;2023-04-08T05:09:19;4.63;;;4.13;;
55224;SDS011;41091;49.400;8.684;2023-04-08T05:11:49;4.57;;;4.03;;
55224;SDS011;41091;49.400;8.684;2023-04-08T05:14:15;4.40;;;4.05;;
55224;SDS011;41091;49.400;8.684;2023-04-08T05:16:42;7.22;;;5.32;;
55224;SDS011;41091;49.400;8.684;2023-04-08T05:19:07;5.38;;;4.88;;
55224;SDS011;41091;49.400;8.684;2023-04-08T05:21:33;6.00;;;5.40;;
55224;SDS011;41091;49.400;8.684;2023-04-08T05:23:58;4.90;;;4.40;;
55224;SDS011;41091;49.400;8.684;2023-04-08T05:26:28;5.65;;;5.18;;
55224;SDS011;41091;49.400;8.684;2023-04-08T05:28:54;5.05;;;4.60;;
55224;SDS011;41091;49.400;8.684;2023-04-08T05:31:20;4.28;;;4.07;;
55224;SDS011;41091;49.400;8.684;2023-04-08T05:33:45;5.65;;;5.13;;
55224;SDS011;41091;49.400;8.684;2023-04-08T05:36:11;5.43;;;4.93;;
55224;SDS011;41091;49.400;8.684;2023-04-08T05:38:37;5.30;;;4.88;;
55224;SDS011;41091;49.400;8.684;2023-04-08T05:41:03;6.03;;;4.63;;
55224;SDS011;41091;49.400;8.684;2023-04-08T05:43:28;4.90;;;4.40;;
55224;SDS011;41091;49.400;8.684;2023-04-08T05:45:56;4.78;;;4.38;;
55224;SDS011;41091;49.400;8.684;2023-04-08T05:48:21;5.22;;;4.80;;
55224;SDS011;41091;49.400;8.684;2023-04-08T05:50:47;6.03;;;5.32;;
55224;SDS011;41091;49.400;8.684;2023-04-08T05:53:12;5.20;;;4.70;;
55224;SDS011;41091;49.400;8.684;2023-04-08T05:55:40;5.78;;;4.70;;
55224;SDS011;41091;49.400;8.684;2023-04-08T05:58:06;4.70;;;4.45;;
55224;SDS011;41091;49.400;8.684;2023-04-08T06:00:33;5.15;;;4.68;;
55224;SDS011;41091;49.400;8.684;2023-04-08T06:03:01;5.45;;;4.95;;
55224;SDS011;41091;49.400;8.684;2023-04-08T06:05:26;4.82;;;4.53;;
55224;SDS011;41091;49.400;8.684;2023-04-08T06:07:51;5.65;;;5.13;;
55224;SDS011;41091;49.400;8.684;2023-04-08T06:10:19;7.18;;;5.28;;
55224;SDS011;41091;49.400;8.684;2023-04-08T06:12:44;5.25;;;4.85;;
55224;SDS011;41091;49.400;8.684;2023-04-08T06:15:10;5.68;;;5.18;;
55224;SDS011;41091;49.400;8.684;2023-04-08T06:17:35;7.28;;;5.13;;
55224;SDS011;41091;49.400;8.684;2023-04-08T06:20:04;5.65;;;5.13;;
55224;SDS011;41091;49.400;8.684;2023-04-08T06:22:30;6.80;;;5.60;;
55224;SDS011;41091;49.400;8.684;2023-04-08T06:24:58;7.38;;;5.35;;
55224;SDS011;41091;49.400;8.684;2023-04-08T06:27:24;5.95;;;4.97;;
55224;SDS011;41091;49.400;8.684;2023-04-08T06:29:50;5.15;;;4.75;;
55224;SDS011;41091;49.400;8.684;2023-04-08T06:32:16;6.18;;;4.90;;
55224;SDS011;41091;49.400;8.684;2023-04-08T06:34:43;5.18;;;4.78;;
55224;SDS011;41091;49.400;8.684;2023-04-08T06:37:09;5.78;;;5.28;;
55224;SDS011;41091;49.400;8.684;2023-04-08T06:39:34;5.82;;;5.32;;
55224;SDS011;41091;49.400;8.684;2023-04-08T06:42:02;5.80;;;5.20;;
55224;SDS011;41091;49.400;8.684;2023-04-08T06:44:27;6.13;;;5.50;;
55224;SDS011;41091;49.400;8.684;2023-04-08T06:46:52;6.85;;;6.15;;
55224;SDS011;41091;49.400;8.684;2023-04-08T06:49:18;6.20;;;5.68;;
55224;SDS011;41091;49.400;8.684;2023-04-08T06:51:45;5.55;;;5.10;;
55224;SDS011;41091;49.400;8.684;2023-04-08T06:54:13;6.38;;;5.38;;
55224;SDS011;41091;49.400;8.684;2023-04-08T06:56:39;6.88;;;6.28;;
55224;SDS011;41091;49.400;8.684;2023-04-08T06:59:04;6.78;;;5.75;;
55224;SDS011;41091;49.400;8.684;2023-04-08T07:01:29;5.70;;;5.30;;
55224;SDS011;41091;49.400;8.684;2023-04-08T07:03:58;6.00;;;5.50;;
55224;SDS011;41091;49.400;8.684;2023-04-08T07:06:26;7.85;;;5.70;;
55224;SDS011;41091;49.400;8.684;2023-04-08T07:08:51;5.65;;;5.10;;
55224;SDS011;41091;49.400;8.684;2023-04-08T07:11:19;6.18;;;5.68;;
55224;SDS011;41091;49.400;8.684;2023-04-08T07:13:45;6.53;;;5.70;;
55224;SDS011;41091;49.400;8.684;2023-04-08T07:16:10;7.28;;;6.18;;
55224;SDS011;41091;49.400;8.684;2023-04-08T07:18:35;5.88;;;5.38;;
55224;SDS011;41091;49.400;8.684;2023-04-08T07:21:01;6.80;;;5.43;;
55224;SDS011;41091;49.400;8.684;2023-04-08T07:23:29;5.43;;;5.03;;
55224;SDS011;41091;49.400;8.684;2023-04-08T07:25:55;9.82;;;6.32;;
55224;SDS011;41091;49.400;8.684;2023-04-08T07:28:26;8.60;;;5.72;;
55224;SDS011;41091;49.400;8.684;2023-04-08T07:30:51;6.97;;;6.25;;
55224;SDS011;41091;49.400;8.684;2023-04-08T07:33:19;8.57;;;6.38;;
55224;SDS011;41091;49.400;8.684;2023-04-08T07:35:44;6.25;;;5.72;;
55224;SDS011;41091;49.400;8.684;2023-04-08T07:38:10;6.60;;;5.95;;
55224;SDS011;41091;49.400;8.684;2023-04-08T07:40:37;6.82;;;6.22;;
55224;SDS011;41091;49.400;8.684;2023-04-08T07:43:05;7.28;;;6.35;;
55224;SDS011;41091;49.400;8.684;2023-04-08T07:45:35;6.47;;;5.88;;
55224;SDS011;41091;49.400;8.684;2023-04-08T07:48:03;6.88;;;6.18;;
55224;SDS011;41091;49.400;8.684;2023-04-08T07:50:28;6.32;;;5.72;;
55224;SDS011;41091;49.400;8.684;2023-04-08T07:52:53;6.38;;;5.80;;
55224;SDS011;41091;49.400;8.684;2023-04-08T07:55:22;7.53;;;6.03;;
55224;SDS011;41091;49.400;8.684;2023-04-08T07:57:47;7.45;;;6.75;;
55224;SDS011;41091;49.400;8.684;2023-04-08T08:00:15;6.65;;;6.10;;
55224;SDS011;41091;49.400;8.684;2023-04-08T08:02:45;7.18;;;6.43;;
55224;SDS011;41091;49.400;8.684;2023-04-08T08:05:11;9.93;;;6.68;;
55224;SDS011;41091;49.400;8.684;2023-04-08T08:07:37;6.68;;;6.07;;
55224;SDS011;41091;49.400;8.684;2023-04-08T08:10:02;6.45;;;5.85;;
55224;SDS011;41091;49.400;8.684;2023-04-08T08:12:28;6.63;;;6.03;;
55224;SDS011;41091;49.400;8.684;2023-04-08T08:14:54;8.60;;;6.35;;
55224;SDS011;41091;49.400;8.684;2023-04-08T08:17:23;11.80;;;5.70;;
55224;SDS011;41091;49.400;8.684;2023-04-08T08:19:54;7.10;;;6.05;;
55224;SDS011;41091;49.400;8.684;2023-04-08T08:22:22;6.88;;;6.28;;
55224;SDS011;41091;49.400;8.684;2023-04-08T08:24:47;6.03;;;5.50;;
55224;SDS011;41091;49.400;8.684;2023-04-08T08:27:12;5.93;;;5.38;;
55224;SDS011;41091;49.400;8.684;2023-04-08T08:29:37;5.60;;;5.10;;
55224;SDS011;41091;49.400;8.684;2023-04-08T08:32:03;7.75;;;5.55;;
55224;SDS011;41091;49.400;8.684;2023-04-08T08:34:28;8.20;;;6.55;;
55224;SDS011;41091;49.400;8.684;2023-04-08T08:36:54;7.75;;;5.63;;
55224;SDS011;41091;49.400;8.684;2023-04-08T08:39:20;7.68;;;6.93;;
55224;SDS011;41091;49.400;8.684;2023-04-08T08:41:45;8.40;;;5.88;;
55224;SDS011;41091;49.400;8.684;2023-04-08T08:44:13;6.43;;;5.90;;
55224;SDS011;41091;49.400;8.684;2023-04-08T08:46:44;6.65;;;5.95;;
55224;SDS011;41091;49.400;8.684;2023-04-08T08:49:11;6.38;;;5.78;;
55224;SDS011;41091;49.400;8.684;2023-04-08T08:51:36;7.25;;;6.25;;
55224;SDS011;41091;49.400;8.684;2023-04-08T08:54:05;9.23;;;6.43;;
55224;SDS011;41091;49.400;8.684;2023-04-08T08:56:33;6.80;;;6.00;;
55224;SDS011;41091;49.400;8.684;2023-04-08T08:59:01;6.80;;;6.13;;
55224;SDS011;41091;49.400;8.684;2023-04-08T09:06:40;6.45;;;5.95;;
55224;SDS011;41091;49.400;8.684;2023-04-08T09:09:08;7.18;;;6.13;;
55224;SDS011;41091;49.400;8.684;2023-04-08T09:11:37;7.38;;;6.68;;
55224;SDS011;41091;49.400;8.684;2023-04-08T09:14:23;10.70;;;6.75;;
55224;SDS011;41091;49.400;8.684;2023-04-08T09:16:50;6.75;;;6.13;;
55224;SDS011;41091;49.400;8.684;2023-04-08T09:19:17;8.55;;;6.80;;
55224;SDS011;41091;49.400;8.684;2023-04-08T09:21:43;6.75;;;6.15;;
55224;SDS011;41091;49.400;8.684;2023-04-08T09:24:09;6.80;;;6.18;;
55224;SDS011;41091;49.400;8.684;2023-04-08T09:26:51;6.60;;;6.00;;
55224;SDS011;41091;49.400;8.684;2023-04-08T09:29:17;8.00;;;5.72;;
55224;SDS011;41091;49.400;8.684;2023-04-08T09:31:42;6.10;;;5.60;;
55224;SDS011;41091;49.400;8.684;2023-04-08T09:34:16;6.72;;;6.00;;
55224;SDS011;41091;49.400;8.684;2023-04-08T09:36:45;8.65;;;5.63;;
55224;SDS011;41091;49.400;8.684;2023-04-08T09:39:13;5.10;;;4.60;;
55224;SDS011;41091;49.400;8.684;2023-04-08T09:41:38;6.18;;;5.57;;
55224;SDS011;41091;49.400;8.684;2023-04-08T09:44:05;6.22;;;5.72;;
55224;SDS011;41091;49.400;8.684;2023-04-08T09:49:18;12.13;;;6.28;;
55224;SDS011;41091;49.400;8.684;2023-04-08T09:54:43;9.55;;;6.38;;
55224;SDS011;41091;49.400;8.684;2023-04-08T09:57:21;5.90;;;5.05;;
55224;SDS011;41091;49.400;8.684;2023-04-08T10:00:09;5.85;;;5.38;;
55224;SDS011;41091;49.400;8.684;2023-04-08T10:03:00;7.82;;;5.43;;
55224;SDS011;41091;49.400;8.684;2023-04-08T10:05:25;5.57;;;5.03;;
55224;SDS011;41091;49.400;8.684;2023-04-08T10:07:51;5.95;;;5.45;;
55224;SDS011;41091;49.400;8.684;2023-04-08T10:10:16;5.88;;;5.35;;
55224;SDS011;41091;49.400;8.684;2023-04-08T10:12:42;6.10;;;5.50;;
55224;SDS011;41091;49.400;8.684;2023-04-08T10:15:27;6.95;;;5.85;;
55224;SDS011;41091;49.400;8.684;2023-04-08T10:17:55;7.55;;;5.80;;
55224;SDS011;41091;49.400;8.684;2023-04-08T10:22:58;6.68;;;5.50;;
55224;SDS011;41091;49.400;8.684;2023-04-08T10:25:33;6.45;;;5.85;;
55224;SDS011;41091;49.400;8.684;2023-04-08T10:33:03;12.30;;;6.28;;
55224;SDS011;41091;49.400;8.684;2023-04-08T10:35:35;7.55;;;6.88;;
55224;SDS011;41091;49.400;8.684;2023-04-08T10:38:01;8.80;;;6.00;;
55224;SDS011;41091;49.400;8.684;2023-04-08T10:40:33;6.30;;;5.80;;
55224;SDS011;41091;49.400;8.684;2023-04-08T10:43:03;5.88;;;5.38;;
55224;SDS011;41091;49.400;8.684;2023-04-08T10:45:31;7.00;;;6.00;;
55224;SDS011;41091;49.400;8.684;2023-04-08T10:48:10;7.45;;;5.65;;
55224;SDS011;41091;49.400;8.684;2023-04-08T10:50:39;6.28;;;5.13;;
55224;SDS011;41091;49.400;8.684;2023-04-08T10:53:05;5.88;;;5.38;;
55224;SDS011;41091;49.400;8.684;2023-04-08T10:55:33;8.25;;;6.15;;
55224;SDS011;41091;49.400;8.684;2023-04-08T10:58:10;6.75;;;6.15;;
55224;SDS011;41091;49.400;8.684;2023-04-08T11:00:38;8.80;;;6.15;;
55224;SDS011;41091;49.400;8.684;2023-04-08T11:03:07;7.32;;;6.63;;
55224;SDS011;41091;49.400;8.684;2023-04-08T11:05:34;9.63;;;5.30;;
55224;SDS011;41091;49.400;8.684;2023-04-08T11:08:01;6.22;;;5.65;;
55224;SDS011;41091;49.400;8.684;2023-04-08T11:10:29;6.35;;;5.75;;
55224;SDS011;41091;49.400;8.684;2023-04-08T11:12:55;6.70;;;5.70;;
55224;SDS011;41091;49.400;8.684;2023-04-08T11:15:21;7.35;;;5.38;;
55224;SDS011;41091;49.400;8.684;2023-04-08T11:17:49;9.90;;;5.88;;
55224;SDS011;41091;49.400;8.684;2023-04-08T11:20:15;6.35;;;5.47;;
55224;SDS011;41091;49.400;8.684;2023-04-08T11:22:41;5.90;;;5.25;;
55224;SDS011;41091;49.400;8.684;2023-04-08T11:25:08;6.32;;;5.72;;
55224;SDS011;41091;49.400;8.684;2023-04-08T11:27:34;10.38;;;6.05;;
55224;SDS011;41091;49.400;8.684;2023-04-08T11:30:01;10.25;;;6.18;;
55224;SDS011;41091;49.400;8.684;2023-04-08T11:32:27;7.00;;;6.13;;
55224;SDS011;41091;49.400;8.684;2023-04-08T11:34:53;7.93;;;4.93;;
55224;SDS011;41091;49.400;8.684;2023-04-08T11:37:18;6.75;;;6.07;;
55224;SDS011;41091;49.400;8.684;2023-04-08T11:39:44;5.95;;;4.55;;
55224;SDS011;41091;49.400;8.684;2023-04-08T11:42:25;16.45;;;6.47;;
55224;SDS011;41091;49.400;8.684;2023-04-08T11:44:51;7.13;;;6.03;;
55224;SDS011;41091;49.400;8.684;2023-04-08T11:47:19;11.73;;;5.32;;
55224;SDS011;41091;49.400;8.684;2023-04-08T11:49:46;6.32;;;5.53;;
55224;SDS011;41091;49.400;8.684;2023-04-08T11:52:12;6.43;;;4.95;;
55224;SDS011;41091;49.400;8.684;2023-04-08T11:54:43;6.85;;;5.25;;
55224;SDS011;41091;49.400;8.684;2023-04-08T11:57:09;12.88;;;6.05;;
55224;SDS011;41091;49.400;8.684;2023-04-08T11:59:37;8.50;;;5.15;;
55224;SDS011;41091;49.400;8.684;2023-04-08T12:02:04;4.78;;;4.38;;
55224;SDS011;41091;49.400;8.684;2023-04-08T12:04:30;9.20;;;5.32;;
55224;SDS011;41091;49.400;8.684;2023-04-08T12:06:58;6.18;;;5.15;;
55224;SDS011;41091;49.400;8.684;2023-04-08T12:09:24;9.25;;;5.10;;
55224;SDS011;41091;49.400;8.684;2023-04-08T12:11:49;7.03;;;4.70;;
55224;SDS011;41091;49.400;8.684;2023-04-08T12:14:17;6.30;;;4.85;;
55224;SDS011;41091;49.400;8.684;2023-04-08T12:16:42;6.30;;;5.40;;
55224;SDS011;41091;49.400;8.684;2023-04-08T12:19:07;9.73;;;5.28;;
55224;SDS011;41091;49.400;8.684;2023-04-08T12:21:33;8.70;;;5.60;;
55224;SDS011;41091;49.400;8.684;2023-04-08T12:23:58;5.72;;;5.18;;
55224;SDS011;41091;49.400;8.684;2023-04-08T12:26:27;7.97;;;6.40;;
55224;SDS011;41091;49.400;8.684;2023-04-08T12:28:54;5.95;;;4.93;;
55224;SDS011;41091;49.400;8.684;2023-04-08T12:31:24;6.22;;;5.63;;
55224;SDS011;41091;49.400;8.684;2023-04-08T12:33:51;8.85;;;4.97;;
55224;SDS011;41091;49.400;8.684;2023-04-08T12:36:17;5.00;;;4.50;;
55224;SDS011;41091;49.400;8.684;2023-04-08T12:38:42;7.22;;;4.95;;
55224;SDS011;41091;49.400;8.684;2023-04-08T12:41:12;5.78;;;5.20;;
55224;SDS011;41091;49.400;8.684;2023-04-08T12:43:39;5.53;;;5.10;;
55224;SDS011;41091;49.400;8.684;2023-04-08T12:46:05;4.78;;;4.38;;
55224;SDS011;41091;49.400;8.684;2023-04-08T12:48:33;5.00;;;4.55;;
55224;SDS011;41091;49.400;8.684;2023-04-08T12:51:00;6.47;;;4.45;;
55224;SDS011;41091;49.400;8.684;2023-04-08T12:53:26;10.38;;;4.93;;
55224;SDS011;41091;49.400;8.684;2023-04-08T12:55:51;6.60;;;4.95;;
55224;SDS011;41091;49.400;8.684;2023-04-08T12:58:20;4.77;;;4.30;;
55224;SDS011;41091;49.400;8.684;2023-04-08T13:00:49;5.03;;;4.57;;
55224;SDS011;41091;49.400;8.684;2023-04-08T13:03:15;6.05;;;4.72;;
55224;SDS011;41091;49.400;8.684;2023-04-08T13:05:43;8.23;;;5.25;;
55224;SDS011;41091;49.400;8.684;2023-04-08T13:08:08;8.00;;;5.15;;
55224;SDS011;41091;49.400;8.684;2023-04-08T13:10:35;8.10;;;5.20;;
55224;SDS011;41091;49.400;8.684;2023-04-08T13:13:01;5.57;;;5.00;;
55224;SDS011;41091;49.400;8.684;2023-04-08T13:15:30;6.78;;;5.28;;
55224;SDS011;41091;49.400;8.684;2023-04-08T13:17:56;4.70;;;4.00;;
55224;SDS011;41091;49.400;8.684;2023-04-08T13:20:21;4.40;;;3.95;;
55224;SDS011;41091;49.400;8.684;2023-04-08T13:22:49;8.20;;;4.38;;
55224;SDS011;41091;49.400;8.684;2023-04-08T13:25:17;7.72;;;3.72;;
55224;SDS011;41091;49.400;8.684;2023-04-08T13:27:42;6.05;;;4.50;;
55224;SDS011;41091;49.400;8.684;2023-04-08T13:30:10;5.13;;;4.45;;
55224;SDS011;41091;49.400;8.684;2023-04-08T13:32:36;4.43;;;3.88;;
55224;SDS011;41091;49.400;8.684;2023-04-08T13:35:01;4.88;;;4.35;;
55224;SDS011;41091;49.400;8.684;2023-04-08T13:37:27;6.70;;;4.43;;
55224;SDS011;41091;49.400;8.684;2023-04-08T13:39:52;4.22;;;3.25;;
55224;SDS011;41091;49.400;8.684;2023-04-08T13:42:18;7.88;;;4.30;;
55224;SDS011;41091;49.400;8.684;2023-04-08T13:44:43;5.38;;;3.70;;
55224;SDS011;41091;49.400;8.684;2023-04-08T13:47:13;9.88;;;4.50;;
55224;SDS011;41091;49.400;8.684;2023-04-08T13:49:41;7.05;;;4.45;;
55224;SDS011;41091;49.400;8.684;2023-04-08T13:52:07;4.93;;;3.97;;
55224;SDS011;41091;49.400;8.684;2023-04-08T13:54:32;6.78;;;4.30;;
55224;SDS011;41091;49.400;8.684;2023-04-08T13:56:57;4.35;;;3.85;;
55224;SDS011;41091;49.400;8.684;2023-04-08T13:59:25;4.13;;;3.83;;
55224;SDS011;41091;49.400;8.684;2023-04-08T14:01:51;3.30;;;3.10;;
55224;SDS011;41091;49.400;8.684;2023-04-08T14:04:22;4.40;;;3.25;;
55224;SDS011;41091;49.400;8.684;2023-04-08T14:06:48;7.43;;;4.03;;
55224;SDS011;41091;49.400;8.684;2023-04-08T14:09:17;3.65;;;3.35;;
55224;SDS011;41091;49.400;8.684;2023-04-08T14:11:43;3.58;;;3.30;;
55224;SDS011;41091;49.400;8.684;2023-04-08T14:14:10;3.55;;;3.25;;
55224;SDS011;41091;49.400;8.684;2023-04-08T14:16:36;4.75;;;3.85;;
55224;SDS011;41091;49.400;8.684;2023-04-08T14:19:04;3.50;;;3.20;;
55224;SDS011;41091;49.400;8.684;2023-04-08T14:21:29;3.70;;;3.40;;
55224;SDS011;41091;49.400;8.684;2023-04-08T14:23:58;4.18;;;3.70;;
55224;SDS011;41091;49.400;8.684;2023-04-08T14:26:25;6.80;;;4.10;;
55224;SDS011;41091;49.400;8.684;2023-04-08T14:28:59;4.68;;;3.95;;
55224;SDS011;41091;49.400;8.684;2023-04-08T14:31:27;3.80;;;3.38;;
55224;SDS011;41091;49.400;8.684;2023-04-08T14:33:52;3.30;;;3.10;;
55224;SDS011;41091;49.400;8.684;2023-04-08T14:36:18;20.80;;;3.38;;
55224;SDS011;41091;49.400;8.684;2023-04-08T14:38:48;3.50;;;3.20;;
55224;SDS011;41091;49.400;8.684;2023-04-08T14:41:15;5.75;;;3.65;;
55224;SDS011;41091;49.400;8.684;2023-04-08T14:43:45;4.07;;;3.33;;
55224;SDS011;41091;49.400;8.684;2023-04-08T14:46:10;5.35;;;3.22;;
55224;SDS011;41091;49.400;8.684;2023-04-08T14:48:35;5.28;;;3.90;;
55224;SDS011;41091;49.400;8.684;2023-04-08T14:51:01;3.47;;;3.15;;
55224;SDS011;41091;49.400;8.684;2023-04-08T14:53:29;4.68;;;3.72;;
55224;SDS011;41091;49.400;8.684;2023-04-08T14:55:54;5.65;;;3.80;;
55224;SDS011;41091;49.400;8.684;2023-04-08T14:58:22;3.95;;;3.40;;
55224;SDS011;41091;49.400;8.684;2023-04-08T15:00:50;4.60;;;3.60;;
55224;SDS011;41091;49.400;8.684;2023-04-08T15:03:19;4.20;;;3.17;;
55224;SDS011;41091;49.400;8.684;2023-04-08T15:05:47;3.47;;;3.17;;
55224;SDS011;41091;49.400;8.684;2023-04-08T15:08:12;4.38;;;3.30;;
55224;SDS011;41091;49.400;8.684;2023-04-08T15:10:38;4.40;;;3.85;;
55224;SDS011;41091;49.400;8.684;2023-04-08T15:13:03;4.15;;;3.25;;